sensor_id;sensor_type;location;lat;lon;timestamp;P1;durP1;ratioP1;P2;durP2;ratioP2
25365;SDS011;13315;48.274;-1.900;2022-12-20T00:02:12;10.52;;;4.93;;
25365;SDS011;13315;48.274;-1.900;2022-12-20T00:04:38;11.63;;;4.53;;
25365;SDS011;13315;48.274;-1.900;2022-12-20T00:07:04;10.05;;;4.93;;
25365;SDS011;13315;48.274;-1.900;2022-12-20T00:09:30;9.27;;;4.57;;
25365;SDS011;13315;48.274;-1.900;2022-12-20T00:11:56;11.25;;;4.80;;
25365;SDS011;13315;48.274;-1.900;2022-12-20T00:14:23;6.97;;;4.43;;
25365;SDS011;13315;48.274;-1.900;2022-12-20T00:16:49;7.20;;;4.53;;
25365;SDS011;13315;48.274;-1.900;2022-12-20T00:19:15;21.77;;;6.25;;
25365;SDS011;13315;48.274;-1.900;2022-12-20T00:21:41;9.07;;;4.75;;
25365;SDS011;13315;48.274;-1.900;2022-12-20T00:24:08;19.23;;;5.40;;
25365;SDS011;13315;48.274;-1.900;2022-12-20T00:26:35;11.43;;;5.00;;
25365;SDS011;13315;48.274;-1.900;2022-12-20T00:29:02;12.00;;;4.68;;
25365;SDS011;13315;48.274;-1.900;2022-12-20T00:31:29;14.20;;;4.22;;
25365;SDS011;13315;48.274;-1.900;2022-12-20T00:33:55;16.23;;;4.78;;
25365;SDS011;13315;48.274;-1.900;2022-12-20T00:36:22;8.60;;;4.75;;
25365;SDS011;13315;48.274;-1.900;2022-12-20T00:38:50;11.57;;;4.90;;
25365;SDS011;13315;48.274;-1.900;2022-12-20T00:41:17;17.10;;;5.13;;
25365;SDS011;13315;48.274;-1.900;2022-12-20T00:43:44;11.70;;;4.87;;
25365;SDS011;13315;48.274;-1.900;2022-12-20T00:46:11;14.15;;;5.35;;
25365;SDS011;13315;48.274;-1.900;2022-12-20T00:48:37;12.52;;;5.05;;
25365;SDS011;13315;48.274;-1.900;2022-12-20T00:51:07;10.07;;;4.80;;
25365;SDS011;13315;48.274;-1.900;2022-12-20T00:53:34;13.57;;;4.28;;
25365;SDS011;13315;48.274;-1.900;2022-12-20T00:56:00;10.07;;;4.28;;
25365;SDS011;13315;48.274;-1.900;2022-12-20T00:58:26;20.60;;;5.18;;
25365;SDS011;13315;48.274;-1.900;2022-12-20T01:00:53;15.95;;;4.30;;
25365;SDS011;13315;48.274;-1.900;2022-12-20T01:03:19;9.80;;;4.05;;
25365;SDS011;13315;48.274;-1.900;2022-12-20T01:05:57;20.20;;;6.00;;
25365;SDS011;13315;48.274;-1.900;2022-12-20T01:08:24;6.97;;;4.03;;
25365;SDS011;13315;48.274;-1.900;2022-12-20T01:11:24;10.70;;;4.45;;
25365;SDS011;13315;48.274;-1.900;2022-12-20T01:13:44;10.18;;;4.85;;
25365;SDS011;13315;48.274;-1.900;2022-12-20T01:16:15;11.53;;;4.50;;
25365;SDS011;13315;48.274;-1.900;2022-12-20T01:18:41;11.10;;;4.32;;
25365;SDS011;13315;48.274;-1.900;2022-12-20T01:21:08;16.10;;;5.15;;
25365;SDS011;13315;48.274;-1.900;2022-12-20T01:23:34;10.45;;;3.95;;
25365;SDS011;13315;48.274;-1.900;2022-12-20T01:26:02;11.05;;;4.55;;
25365;SDS011;13315;48.274;-1.900;2022-12-20T01:28:29;12.00;;;4.50;;
25365;SDS011;13315;48.274;-1.900;2022-12-20T01:30:55;13.45;;;4.20;;
25365;SDS011;13315;48.274;-1.900;2022-12-20T01:33:21;10.40;;;4.63;;
25365;SDS011;13315;48.274;-1.900;2022-12-20T01:35:57;12.05;;;5.03;;
25365;SDS011;13315;48.274;-1.900;2022-12-20T01:38:24;11.23;;;4.70;;
25365;SDS011;13315;48.274;-1.900;2022-12-20T01:40:50;8.82;;;3.97;;
25365;SDS011;13315;48.274;-1.900;2022-12-20T01:43:17;13.32;;;4.43;;
25365;SDS011;13315;48.274;-1.900;2022-12-20T01:45:44;8.80;;;4.68;;
25365;SDS011;13315;48.274;-1.900;2022-12-20T01:48:11;10.25;;;4.28;;
25365;SDS011;13315;48.274;-1.900;2022-12-20T01:50:38;14.48;;;4.18;;
25365;SDS011;13315;48.274;-1.900;2022-12-20T01:53:04;9.95;;;3.75;;
25365;SDS011;13315;48.274;-1.900;2022-12-20T01:55:30;15.20;;;4.53;;
25365;SDS011;13315;48.274;-1.900;2022-12-20T01:58:04;11.52;;;4.00;;
25365;SDS011;13315;48.274;-1.900;2022-12-20T02:00:30;12.00;;;4.18;;
25365;SDS011;13315;48.274;-1.900;2022-12-20T02:03:00;14.90;;;4.63;;
25365;SDS011;13315;48.274;-1.900;2022-12-20T02:05:32;11.52;;;5.22;;
25365;SDS011;13315;48.274;-1.900;2022-12-20T02:07:58;8.23;;;4.45;;
25365;SDS011;13315;48.274;-1.900;2022-12-20T02:10:26;11.73;;;4.40;;
25365;SDS011;13315;48.274;-1.900;2022-12-20T02:12:56;5.75;;;3.75;;
25365;SDS011;13315;48.274;-1.900;2022-12-20T02:18:22;13.23;;;4.28;;
25365;SDS011;13315;48.274;-1.900;2022-12-20T02:29:16;10.52;;;4.13;;
25365;SDS011;13315;48.274;-1.900;2022-12-20T02:31:52;9.20;;;4.10;;
25365;SDS011;13315;48.274;-1.900;2022-12-20T02:34:21;7.10;;;3.95;;
25365;SDS011;13315;48.274;-1.900;2022-12-20T02:36:49;12.85;;;4.75;;
25365;SDS011;13315;48.274;-1.900;2022-12-20T02:39:15;8.82;;;3.72;;
25365;SDS011;13315;48.274;-1.900;2022-12-20T02:41:42;9.95;;;3.78;;
25365;SDS011;13315;48.274;-1.900;2022-12-20T02:44:11;6.82;;;3.53;;
25365;SDS011;13315;48.274;-1.900;2022-12-20T02:46:57;6.80;;;3.25;;
25365;SDS011;13315;48.274;-1.900;2022-12-20T02:49:26;6.05;;;3.42;;
25365;SDS011;13315;48.274;-1.900;2022-12-20T02:54:19;6.78;;;3.50;;
25365;SDS011;13315;48.274;-1.900;2022-12-20T02:56:50;8.80;;;3.17;;
25365;SDS011;13315;48.274;-1.900;2022-12-20T02:59:24;9.27;;;3.72;;
25365;SDS011;13315;48.274;-1.900;2022-12-20T03:01:51;7.25;;;3.40;;
25365;SDS011;13315;48.274;-1.900;2022-12-20T03:04:19;8.15;;;3.22;;
25365;SDS011;13315;48.274;-1.900;2022-12-20T03:07:09;10.13;;;3.72;;
25365;SDS011;13315;48.274;-1.900;2022-12-20T03:09:37;8.93;;;3.88;;
25365;SDS011;13315;48.274;-1.900;2022-12-20T03:12:04;7.78;;;3.65;;
25365;SDS011;13315;48.274;-1.900;2022-12-20T03:14:31;7.82;;;3.13;;
25365;SDS011;13315;48.274;-1.900;2022-12-20T03:16:57;12.80;;;3.80;;
25365;SDS011;13315;48.274;-1.900;2022-12-20T03:19:23;8.27;;;3.75;;
25365;SDS011;13315;48.274;-1.900;2022-12-20T03:21:49;11.90;;;3.50;;
25365;SDS011;13315;48.274;-1.900;2022-12-20T03:24:16;10.68;;;3.53;;
25365;SDS011;13315;48.274;-1.900;2022-12-20T03:26:42;6.28;;;3.63;;
25365;SDS011;13315;48.274;-1.900;2022-12-20T03:29:08;10.50;;;3.42;;
25365;SDS011;13315;48.274;-1.900;2022-12-20T03:31:35;7.95;;;3.30;;
25365;SDS011;13315;48.274;-1.900;2022-12-20T03:34:01;6.93;;;3.67;;
25365;SDS011;13315;48.274;-1.900;2022-12-20T03:36:27;13.95;;;3.00;;
25365;SDS011;13315;48.274;-1.900;2022-12-20T03:38:53;7.53;;;3.15;;
25365;SDS011;13315;48.274;-1.900;2022-12-20T03:41:21;8.05;;;3.55;;
25365;SDS011;13315;48.274;-1.900;2022-12-20T03:43:47;6.97;;;3.42;;
25365;SDS011;13315;48.274;-1.900;2022-12-20T03:46:13;14.10;;;3.30;;
25365;SDS011;13315;48.274;-1.900;2022-12-20T03:48:39;11.05;;;3.47;;
25365;SDS011;13315;48.274;-1.900;2022-12-20T03:51:05;7.97;;;3.08;;
25365;SDS011;13315;48.274;-1.900;2022-12-20T03:53:31;13.30;;;4.57;;
25365;SDS011;13315;48.274;-1.900;2022-12-20T03:55:57;7.78;;;3.60;;
25365;SDS011;13315;48.274;-1.900;2022-12-20T03:58:23;9.48;;;3.25;;
25365;SDS011;13315;48.274;-1.900;2022-12-20T04:00:50;7.05;;;3.38;;
25365;SDS011;13315;48.274;-1.900;2022-12-20T04:03:16;9.02;;;3.22;;
25365;SDS011;13315;48.274;-1.900;2022-12-20T04:05:42;7.07;;;2.90;;
25365;SDS011;13315;48.274;-1.900;2022-12-20T04:08:08;4.68;;;2.72;;
25365;SDS011;13315;48.274;-1.900;2022-12-20T04:10:34;3.05;;;2.75;;
25365;SDS011;13315;48.274;-1.900;2022-12-20T04:13:20;4.03;;;2.33;;
25365;SDS011;13315;48.274;-1.900;2022-12-20T04:15:46;4.18;;;2.00;;
25365;SDS011;13315;48.274;-1.900;2022-12-20T04:18:12;5.03;;;2.00;;
25365;SDS011;13315;48.274;-1.900;2022-12-20T04:20:38;4.55;;;2.10;;
25365;SDS011;13315;48.274;-1.900;2022-12-20T04:23:04;4.00;;;1.83;;
25365;SDS011;13315;48.274;-1.900;2022-12-20T04:25:30;6.05;;;2.05;;
25365;SDS011;13315;48.274;-1.900;2022-12-20T04:27:56;4.47;;;1.77;;
25365;SDS011;13315;48.274;-1.900;2022-12-20T04:30:23;2.67;;;1.50;;
25365;SDS011;13315;48.274;-1.900;2022-12-20T04:32:49;7.35;;;2.00;;
25365;SDS011;13315;48.274;-1.900;2022-12-20T04:37:44;4.32;;;1.77;;
25365;SDS011;13315;48.274;-1.900;2022-12-20T04:40:11;2.88;;;1.85;;
25365;SDS011;13315;48.274;-1.900;2022-12-20T04:42:37;4.18;;;1.80;;
25365;SDS011;13315;48.274;-1.900;2022-12-20T04:45:04;3.80;;;1.73;;
25365;SDS011;13315;48.274;-1.900;2022-12-20T04:47:30;5.15;;;1.70;;
25365;SDS011;13315;48.274;-1.900;2022-12-20T04:49:56;1.58;;;1.48;;
25365;SDS011;13315;48.274;-1.900;2022-12-20T04:52:22;3.72;;;2.03;;
25365;SDS011;13315;48.274;-1.900;2022-12-20T04:55:07;2.45;;;1.90;;
25365;SDS011;13315;48.274;-1.900;2022-12-20T04:57:33;4.75;;;1.80;;
25365;SDS011;13315;48.274;-1.900;2022-12-20T04:59:59;2.97;;;1.90;;
25365;SDS011;13315;48.274;-1.900;2022-12-20T05:02:25;4.65;;;1.85;;
25365;SDS011;13315;48.274;-1.900;2022-12-20T05:04:52;4.15;;;1.58;;
25365;SDS011;13315;48.274;-1.900;2022-12-20T05:07:18;3.40;;;1.73;;
25365;SDS011;13315;48.274;-1.900;2022-12-20T05:09:44;2.00;;;1.63;;
25365;SDS011;13315;48.274;-1.900;2022-12-20T05:12:10;2.95;;;1.50;;
25365;SDS011;13315;48.274;-1.900;2022-12-20T05:14:36;5.63;;;1.90;;
25365;SDS011;13315;48.274;-1.900;2022-12-20T05:17:02;3.90;;;1.60;;
25365;SDS011;13315;48.274;-1.900;2022-12-20T05:19:28;2.22;;;1.40;;
25365;SDS011;13315;48.274;-1.900;2022-12-20T05:21:54;4.53;;;1.60;;
25365;SDS011;13315;48.274;-1.900;2022-12-20T05:24:40;5.13;;;2.13;;
25365;SDS011;13315;48.274;-1.900;2022-12-20T05:27:25;3.15;;;1.92;;
25365;SDS011;13315;48.274;-1.900;2022-12-20T05:29:51;3.65;;;1.75;;
25365;SDS011;13315;48.274;-1.900;2022-12-20T05:32:17;5.57;;;2.13;;
25365;SDS011;13315;48.274;-1.900;2022-12-20T05:34:43;2.33;;;1.67;;
25365;SDS011;13315;48.274;-1.900;2022-12-20T05:37:09;3.67;;;1.90;;
25365;SDS011;13315;48.274;-1.900;2022-12-20T05:39:35;2.08;;;1.80;;
25365;SDS011;13315;48.274;-1.900;2022-12-20T05:42:01;2.55;;;2.00;;
25365;SDS011;13315;48.274;-1.900;2022-12-20T05:44:27;3.35;;;2.17;;
25365;SDS011;13315;48.274;-1.900;2022-12-20T05:46:53;1.80;;;1.70;;
25365;SDS011;13315;48.274;-1.900;2022-12-20T05:49:20;6.70;;;2.25;;
25365;SDS011;13315;48.274;-1.900;2022-12-20T05:51:46;2.72;;;2.03;;
25365;SDS011;13315;48.274;-1.900;2022-12-20T05:54:12;2.88;;;1.90;;
25365;SDS011;13315;48.274;-1.900;2022-12-20T05:56:38;2.28;;;1.95;;
25365;SDS011;13315;48.274;-1.900;2022-12-20T05:59:04;2.42;;;2.00;;
25365;SDS011;13315;48.274;-1.900;2022-12-20T06:01:30;4.47;;;1.90;;
25365;SDS011;13315;48.274;-1.900;2022-12-20T06:03:57;3.90;;;1.60;;
25365;SDS011;13315;48.274;-1.900;2022-12-20T06:06:23;2.15;;;1.85;;
25365;SDS011;13315;48.274;-1.900;2022-12-20T06:08:49;2.50;;;1.67;;
25365;SDS011;13315;48.274;-1.900;2022-12-20T06:11:15;4.88;;;3.15;;
25365;SDS011;13315;48.274;-1.900;2022-12-20T06:13:41;4.13;;;1.70;;
25365;SDS011;13315;48.274;-1.900;2022-12-20T06:16:07;5.43;;;2.20;;
25365;SDS011;13315;48.274;-1.900;2022-12-20T06:18:34;4.50;;;1.90;;
25365;SDS011;13315;48.274;-1.900;2022-12-20T06:21:00;3.85;;;2.10;;
25365;SDS011;13315;48.274;-1.900;2022-12-20T06:23:26;4.05;;;1.80;;
25365;SDS011;13315;48.274;-1.900;2022-12-20T06:25:52;1.95;;;1.45;;
25365;SDS011;13315;48.274;-1.900;2022-12-20T06:28:18;3.70;;;1.88;;
25365;SDS011;13315;48.274;-1.900;2022-12-20T06:30:56;5.20;;;2.00;;
25365;SDS011;13315;48.274;-1.900;2022-12-20T06:33:22;2.17;;;1.50;;
25365;SDS011;13315;48.274;-1.900;2022-12-20T06:35:49;2.60;;;1.55;;
25365;SDS011;13315;48.274;-1.900;2022-12-20T06:38:15;1.33;;;1.23;;
25365;SDS011;13315;48.274;-1.900;2022-12-20T06:40:42;1.85;;;1.60;;
25365;SDS011;13315;48.274;-1.900;2022-12-20T06:43:08;1.42;;;1.30;;
25365;SDS011;13315;48.274;-1.900;2022-12-20T06:45:34;1.70;;;1.60;;
25365;SDS011;13315;48.274;-1.900;2022-12-20T06:48:00;1.33;;;1.23;;
25365;SDS011;13315;48.274;-1.900;2022-12-20T06:50:27;4.40;;;1.38;;
25365;SDS011;13315;48.274;-1.900;2022-12-20T06:52:54;1.55;;;1.40;;
25365;SDS011;13315;48.274;-1.900;2022-12-20T06:55:20;1.38;;;1.30;;
25365;SDS011;13315;48.274;-1.900;2022-12-20T06:57:46;1.40;;;1.30;;
25365;SDS011;13315;48.274;-1.900;2022-12-20T07:00:12;1.50;;;1.40;;
25365;SDS011;13315;48.274;-1.900;2022-12-20T07:02:38;1.52;;;1.40;;
25365;SDS011;13315;48.274;-1.900;2022-12-20T07:05:04;3.65;;;1.52;;
25365;SDS011;13315;48.274;-1.900;2022-12-20T07:07:30;1.60;;;1.50;;
25365;SDS011;13315;48.274;-1.900;2022-12-20T07:09:56;1.38;;;1.27;;
25365;SDS011;13315;48.274;-1.900;2022-12-20T07:12:23;1.50;;;1.40;;
25365;SDS011;13315;48.274;-1.900;2022-12-20T07:14:49;2.70;;;1.40;;
25365;SDS011;13315;48.274;-1.900;2022-12-20T07:17:16;1.45;;;1.35;;
25365;SDS011;13315;48.274;-1.900;2022-12-20T07:19:42;1.70;;;1.60;;
25365;SDS011;13315;48.274;-1.900;2022-12-20T07:22:08;1.77;;;1.60;;
25365;SDS011;13315;48.274;-1.900;2022-12-20T07:24:34;1.67;;;1.38;;
25365;SDS011;13315;48.274;-1.900;2022-12-20T07:27:00;3.00;;;1.70;;
25365;SDS011;13315;48.274;-1.900;2022-12-20T07:29:26;1.90;;;1.77;;
25365;SDS011;13315;48.274;-1.900;2022-12-20T07:31:53;1.92;;;1.52;;
25365;SDS011;13315;48.274;-1.900;2022-12-20T07:34:19;1.85;;;1.65;;
25365;SDS011;13315;48.274;-1.900;2022-12-20T07:36:45;6.57;;;1.52;;
25365;SDS011;13315;48.274;-1.900;2022-12-20T07:39:12;1.30;;;1.20;;
25365;SDS011;13315;48.274;-1.900;2022-12-20T07:41:38;1.70;;;1.60;;
25365;SDS011;13315;48.274;-1.900;2022-12-20T07:44:04;2.92;;;1.80;;
25365;SDS011;13315;48.274;-1.900;2022-12-20T07:46:30;2.00;;;1.70;;
25365;SDS011;13315;48.274;-1.900;2022-12-20T07:48:57;3.33;;;1.90;;
25365;SDS011;13315;48.274;-1.900;2022-12-20T07:51:34;1.70;;;1.60;;
25365;SDS011;13315;48.274;-1.900;2022-12-20T07:54:35;2.00;;;1.67;;
25365;SDS011;13315;48.274;-1.900;2022-12-20T07:56:55;1.42;;;1.40;;
25365;SDS011;13315;48.274;-1.900;2022-12-20T07:59:27;1.60;;;1.50;;
25365;SDS011;13315;48.274;-1.900;2022-12-20T08:01:54;1.70;;;1.60;;
25365;SDS011;13315;48.274;-1.900;2022-12-20T08:04:23;1.50;;;1.40;;
25365;SDS011;13315;48.274;-1.900;2022-12-20T08:09:15;1.58;;;1.48;;
25365;SDS011;13315;48.274;-1.900;2022-12-20T08:11:42;1.52;;;1.40;;
25365;SDS011;13315;48.274;-1.900;2022-12-20T08:14:09;1.55;;;1.45;;
25365;SDS011;13315;48.274;-1.900;2022-12-20T08:16:36;2.53;;;1.80;;
25365;SDS011;13315;48.274;-1.900;2022-12-20T08:19:02;1.65;;;1.55;;
25365;SDS011;13315;48.274;-1.900;2022-12-20T08:21:28;1.45;;;1.35;;
25365;SDS011;13315;48.274;-1.900;2022-12-20T08:23:54;1.70;;;1.60;;
25365;SDS011;13315;48.274;-1.900;2022-12-20T08:26:21;1.33;;;1.23;;
25365;SDS011;13315;48.274;-1.900;2022-12-20T08:28:47;1.98;;;1.50;;
25365;SDS011;13315;48.274;-1.900;2022-12-20T08:31:13;1.73;;;1.63;;
25365;SDS011;13315;48.274;-1.900;2022-12-20T08:33:39;1.90;;;1.70;;
25365;SDS011;13315;48.274;-1.900;2022-12-20T08:36:07;1.50;;;1.40;;
25365;SDS011;13315;48.274;-1.900;2022-12-20T08:38:33;1.50;;;1.50;;
25365;SDS011;13315;48.274;-1.900;2022-12-20T08:43:29;1.65;;;1.55;;
25365;SDS011;13315;48.274;-1.900;2022-12-20T08:45:55;2.15;;;1.98;;
25365;SDS011;13315;48.274;-1.900;2022-12-20T08:48:21;2.53;;;1.85;;
25365;SDS011;13315;48.274;-1.900;2022-12-20T08:50:58;2.10;;;1.90;;
25365;SDS011;13315;48.274;-1.900;2022-12-20T08:53:25;3.17;;;2.10;;
25365;SDS011;13315;48.274;-1.900;2022-12-20T08:55:51;2.97;;;1.98;;
25365;SDS011;13315;48.274;-1.900;2022-12-20T08:58:18;2.33;;;2.05;;
25365;SDS011;13315;48.274;-1.900;2022-12-20T09:00:45;2.97;;;1.95;;
25365;SDS011;13315;48.274;-1.900;2022-12-20T09:03:11;2.00;;;1.83;;
25365;SDS011;13315;48.274;-1.900;2022-12-20T09:05:47;3.30;;;1.90;;
25365;SDS011;13315;48.274;-1.900;2022-12-20T09:08:14;1.98;;;1.88;;
25365;SDS011;13315;48.274;-1.900;2022-12-20T09:10:40;3.58;;;2.55;;
25365;SDS011;13315;48.274;-1.900;2022-12-20T09:13:07;2.63;;;2.17;;
25365;SDS011;13315;48.274;-1.900;2022-12-20T09:15:34;3.30;;;2.40;;
25365;SDS011;13315;48.274;-1.900;2022-12-20T09:18:00;2.50;;;2.30;;
25365;SDS011;13315;48.274;-1.900;2022-12-20T09:20:27;2.75;;;2.53;;
25365;SDS011;13315;48.274;-1.900;2022-12-20T09:22:53;4.05;;;2.63;;
25365;SDS011;13315;48.274;-1.900;2022-12-20T09:25:19;3.80;;;2.85;;
25365;SDS011;13315;48.274;-1.900;2022-12-20T09:27:45;2.85;;;2.65;;
25365;SDS011;13315;48.274;-1.900;2022-12-20T09:30:11;3.63;;;2.65;;
25365;SDS011;13315;48.274;-1.900;2022-12-20T09:32:38;4.35;;;3.03;;
25365;SDS011;13315;48.274;-1.900;2022-12-20T09:35:04;3.00;;;2.70;;
25365;SDS011;13315;48.274;-1.900;2022-12-20T09:37:30;4.10;;;2.53;;
25365;SDS011;13315;48.274;-1.900;2022-12-20T09:39:57;3.70;;;3.13;;
25365;SDS011;13315;48.274;-1.900;2022-12-20T09:42:26;5.20;;;3.47;;
25365;SDS011;13315;48.274;-1.900;2022-12-20T09:44:55;4.22;;;3.13;;
25365;SDS011;13315;48.274;-1.900;2022-12-20T09:47:24;6.47;;;3.35;;
25365;SDS011;13315;48.274;-1.900;2022-12-20T09:49:52;3.20;;;2.83;;
25365;SDS011;13315;48.274;-1.900;2022-12-20T09:55:03;3.97;;;3.28;;
25365;SDS011;13315;48.274;-1.900;2022-12-20T09:59:57;7.57;;;3.33;;
25365;SDS011;13315;48.274;-1.900;2022-12-20T10:02:24;5.07;;;3.20;;
25365;SDS011;13315;48.274;-1.900;2022-12-20T10:04:50;4.45;;;3.33;;
25365;SDS011;13315;48.274;-1.900;2022-12-20T10:15:02;5.72;;;3.40;;
25365;SDS011;13315;48.274;-1.900;2022-12-20T10:22:38;1.85;;;1.75;;
25365;SDS011;13315;48.274;-1.900;2022-12-20T10:27:41;1.45;;;1.35;;
25365;SDS011;13315;48.274;-1.900;2022-12-20T10:30:14;1.60;;;1.50;;
25365;SDS011;13315;48.274;-1.900;2022-12-20T10:32:45;1.55;;;1.55;;
25365;SDS011;13315;48.274;-1.900;2022-12-20T10:40:11;0.98;;;0.98;;
25365;SDS011;13315;48.274;-1.900;2022-12-20T10:42:50;1.00;;;1.00;;
25365;SDS011;13315;48.274;-1.900;2022-12-20T10:47:44;2.47;;;1.27;;
25365;SDS011;13315;48.274;-1.900;2022-12-20T10:50:15;1.20;;;1.20;;
25365;SDS011;13315;48.274;-1.900;2022-12-20T10:52:43;1.10;;;1.10;;
25365;SDS011;13315;48.274;-1.900;2022-12-20T10:57:53;1.20;;;1.20;;
25365;SDS011;13315;48.274;-1.900;2022-12-20T11:00:27;1.30;;;1.30;;
25365;SDS011;13315;48.274;-1.900;2022-12-20T11:05:38;2.78;;;1.33;;
25365;SDS011;13315;48.274;-1.900;2022-12-20T11:08:14;1.23;;;1.23;;
25365;SDS011;13315;48.274;-1.900;2022-12-20T11:10:41;1.50;;;1.40;;
25365;SDS011;13315;48.274;-1.900;2022-12-20T11:13:17;1.58;;;1.48;;
25365;SDS011;13315;48.274;-1.900;2022-12-20T11:15:46;1.40;;;1.30;;
25365;SDS011;13315;48.274;-1.900;2022-12-20T11:23:31;1.10;;;1.10;;
25365;SDS011;13315;48.274;-1.900;2022-12-20T11:36:11;3.42;;;1.20;;
25365;SDS011;13315;48.274;-1.900;2022-12-20T11:43:39;3.22;;;1.30;;
25365;SDS011;13315;48.274;-1.900;2022-12-20T11:48:48;1.70;;;1.60;;
25365;SDS011;13315;48.274;-1.900;2022-12-20T11:51:20;1.88;;;1.77;;
25365;SDS011;13315;48.274;-1.900;2022-12-20T11:53:49;3.40;;;1.98;;
25365;SDS011;13315;48.274;-1.900;2022-12-20T11:56:19;6.00;;;2.05;;
25365;SDS011;13315;48.274;-1.900;2022-12-20T12:01:16;4.50;;;2.38;;
25365;SDS011;13315;48.274;-1.900;2022-12-20T12:03:45;6.38;;;2.30;;
25365;SDS011;13315;48.274;-1.900;2022-12-20T12:06:25;5.88;;;2.35;;
25365;SDS011;13315;48.274;-1.900;2022-12-20T12:08:57;4.00;;;1.70;;
25365;SDS011;13315;48.274;-1.900;2022-12-20T12:11:28;6.40;;;2.22;;
25365;SDS011;13315;48.274;-1.900;2022-12-20T12:13:56;3.30;;;1.65;;
25365;SDS011;13315;48.274;-1.900;2022-12-20T12:16:24;2.95;;;2.05;;
25365;SDS011;13315;48.274;-1.900;2022-12-20T12:18:52;2.72;;;2.22;;
25365;SDS011;13315;48.274;-1.900;2022-12-20T12:21:22;4.50;;;2.10;;
25365;SDS011;13315;48.274;-1.900;2022-12-20T12:24:03;2.40;;;2.20;;
25365;SDS011;13315;48.274;-1.900;2022-12-20T12:26:35;6.05;;;2.60;;
25365;SDS011;13315;48.274;-1.900;2022-12-20T12:29:09;3.85;;;2.20;;
25365;SDS011;13315;48.274;-1.900;2022-12-20T12:31:41;4.00;;;1.98;;
25365;SDS011;13315;48.274;-1.900;2022-12-20T12:34:13;6.03;;;2.30;;
25365;SDS011;13315;48.274;-1.900;2022-12-20T12:37:32;3.35;;;2.33;;
25365;SDS011;13315;48.274;-1.900;2022-12-20T12:39:40;2.10;;;1.95;;
25365;SDS011;13315;48.274;-1.900;2022-12-20T12:44:38;1.90;;;1.60;;
25365;SDS011;13315;48.274;-1.900;2022-12-20T12:47:05;2.45;;;1.90;;
25365;SDS011;13315;48.274;-1.900;2022-12-20T12:49:35;2.25;;;2.00;;
25365;SDS011;13315;48.274;-1.900;2022-12-20T12:52:03;2.70;;;2.03;;
25365;SDS011;13315;48.274;-1.900;2022-12-20T12:54:36;2.10;;;1.90;;
25365;SDS011;13315;48.274;-1.900;2022-12-20T12:57:14;4.88;;;2.65;;
25365;SDS011;13315;48.274;-1.900;2022-12-20T12:59:41;2.30;;;2.08;;
25365;SDS011;13315;48.274;-1.900;2022-12-20T13:04:52;3.25;;;2.50;;
25365;SDS011;13315;48.274;-1.900;2022-12-20T13:10:00;3.35;;;2.60;;
25365;SDS011;13315;48.274;-1.900;2022-12-20T13:15:10;3.22;;;2.63;;
25365;SDS011;13315;48.274;-1.900;2022-12-20T13:17:48;3.65;;;2.40;;
25365;SDS011;13315;48.274;-1.900;2022-12-20T13:20:27;3.63;;;2.67;;
25365;SDS011;13315;48.274;-1.900;2022-12-20T13:25:45;2.88;;;2.50;;
25365;SDS011;13315;48.274;-1.900;2022-12-20T13:30:38;4.57;;;3.22;;
25365;SDS011;13315;48.274;-1.900;2022-12-20T13:41:10;3.35;;;2.30;;
25365;SDS011;13315;48.274;-1.900;2022-12-20T13:43:45;5.22;;;1.92;;
25365;SDS011;13315;48.274;-1.900;2022-12-20T13:46:20;8.10;;;2.35;;
25365;SDS011;13315;48.274;-1.900;2022-12-20T13:48:56;1.73;;;1.60;;
25365;SDS011;13315;48.274;-1.900;2022-12-20T13:51:26;5.73;;;2.33;;
25365;SDS011;13315;48.274;-1.900;2022-12-20T13:56:30;4.28;;;2.53;;
25365;SDS011;13315;48.274;-1.900;2022-12-20T13:58:57;5.55;;;2.00;;
25365;SDS011;13315;48.274;-1.900;2022-12-20T14:01:28;2.63;;;1.92;;
25365;SDS011;13315;48.274;-1.900;2022-12-20T14:03:55;7.38;;;2.42;;
25365;SDS011;13315;48.274;-1.900;2022-12-20T14:06:22;3.63;;;2.30;;
25365;SDS011;13315;48.274;-1.900;2022-12-20T14:08:50;2.70;;;2.10;;
25365;SDS011;13315;48.274;-1.900;2022-12-20T14:11:18;6.63;;;2.03;;
25365;SDS011;13315;48.274;-1.900;2022-12-20T14:13:54;4.65;;;1.92;;
25365;SDS011;13315;48.274;-1.900;2022-12-20T14:16:21;7.22;;;1.80;;
25365;SDS011;13315;48.274;-1.900;2022-12-20T14:18:48;4.28;;;2.00;;
25365;SDS011;13315;48.274;-1.900;2022-12-20T14:21:15;3.33;;;2.20;;
25365;SDS011;13315;48.274;-1.900;2022-12-20T14:23:42;7.68;;;2.38;;
25365;SDS011;13315;48.274;-1.900;2022-12-20T14:26:10;9.07;;;2.37;;
25365;SDS011;13315;48.274;-1.900;2022-12-20T14:28:40;6.93;;;2.60;;
25365;SDS011;13315;48.274;-1.900;2022-12-20T14:31:24;3.05;;;2.60;;
25365;SDS011;13315;48.274;-1.900;2022-12-20T14:33:59;5.00;;;3.03;;
25365;SDS011;13315;48.274;-1.900;2022-12-20T14:36:26;5.85;;;2.80;;
25365;SDS011;13315;48.274;-1.900;2022-12-20T14:38:52;4.90;;;2.60;;
25365;SDS011;13315;48.274;-1.900;2022-12-20T14:41:32;8.55;;;2.50;;
25365;SDS011;13315;48.274;-1.900;2022-12-20T14:44:19;2.42;;;2.10;;
25365;SDS011;13315;48.274;-1.900;2022-12-20T14:46:47;4.43;;;2.88;;
25365;SDS011;13315;48.274;-1.900;2022-12-20T14:51:40;3.08;;;2.00;;
25365;SDS011;13315;48.274;-1.900;2022-12-20T14:54:09;4.70;;;1.77;;
25365;SDS011;13315;48.274;-1.900;2022-12-20T14:56:35;1.60;;;1.50;;
25365;SDS011;13315;48.274;-1.900;2022-12-20T14:59:02;4.50;;;1.52;;
25365;SDS011;13315;48.274;-1.900;2022-12-20T15:01:30;3.17;;;1.90;;
25365;SDS011;13315;48.274;-1.900;2022-12-20T15:03:57;3.55;;;1.83;;
25365;SDS011;13315;48.274;-1.900;2022-12-20T15:06:33;1.40;;;1.30;;
25365;SDS011;13315;48.274;-1.900;2022-12-20T15:09:00;2.92;;;1.33;;
25365;SDS011;13315;48.274;-1.900;2022-12-20T15:11:26;4.00;;;1.45;;
25365;SDS011;13315;48.274;-1.900;2022-12-20T15:13:53;2.45;;;1.73;;
25365;SDS011;13315;48.274;-1.900;2022-12-20T15:16:23;2.70;;;1.55;;
25365;SDS011;13315;48.274;-1.900;2022-12-20T15:18:50;2.42;;;1.42;;
25365;SDS011;13315;48.274;-1.900;2022-12-20T15:23:47;4.00;;;1.88;;
25365;SDS011;13315;48.274;-1.900;2022-12-20T15:26:15;3.47;;;2.38;;
25365;SDS011;13315;48.274;-1.900;2022-12-20T15:28:42;5.22;;;2.50;;
25365;SDS011;13315;48.274;-1.900;2022-12-20T15:31:09;2.58;;;2.38;;
25365;SDS011;13315;48.274;-1.900;2022-12-20T15:33:36;7.22;;;3.00;;
25365;SDS011;13315;48.274;-1.900;2022-12-20T15:36:03;4.60;;;3.17;;
25365;SDS011;13315;48.274;-1.900;2022-12-20T15:38:29;3.00;;;2.80;;
25365;SDS011;13315;48.274;-1.900;2022-12-20T15:41:02;3.42;;;3.13;;
25365;SDS011;13315;48.274;-1.900;2022-12-20T15:43:28;3.08;;;2.70;;
25365;SDS011;13315;48.274;-1.900;2022-12-20T15:45:58;4.45;;;2.88;;
25365;SDS011;13315;48.274;-1.900;2022-12-20T15:48:24;5.35;;;3.33;;
25365;SDS011;13315;48.274;-1.900;2022-12-20T15:50:54;4.05;;;3.47;;
25365;SDS011;13315;48.274;-1.900;2022-12-20T15:53:22;5.20;;;3.63;;
25365;SDS011;13315;48.274;-1.900;2022-12-20T15:55:49;6.75;;;3.42;;
25365;SDS011;13315;48.274;-1.900;2022-12-20T15:58:15;4.85;;;3.72;;
25365;SDS011;13315;48.274;-1.900;2022-12-20T16:00:41;8.88;;;4.60;;
25365;SDS011;13315;48.274;-1.900;2022-12-20T16:03:11;9.27;;;5.38;;
25365;SDS011;13315;48.274;-1.900;2022-12-20T16:05:38;7.20;;;4.88;;
25365;SDS011;13315;48.274;-1.900;2022-12-20T16:08:04;7.45;;;5.10;;
25365;SDS011;13315;48.274;-1.900;2022-12-20T16:10:31;9.38;;;6.03;;
25365;SDS011;13315;48.274;-1.900;2022-12-20T16:12:57;7.00;;;5.05;;
25365;SDS011;13315;48.274;-1.900;2022-12-20T16:15:23;6.40;;;4.30;;
25365;SDS011;13315;48.274;-1.900;2022-12-20T16:17:49;4.70;;;4.20;;
25365;SDS011;13315;48.274;-1.900;2022-12-20T16:20:16;6.82;;;4.80;;
25365;SDS011;13315;48.274;-1.900;2022-12-20T16:22:43;4.53;;;4.05;;
25365;SDS011;13315;48.274;-1.900;2022-12-20T16:25:24;10.13;;;5.03;;
25365;SDS011;13315;48.274;-1.900;2022-12-20T16:27:51;9.85;;;4.82;;
25365;SDS011;13315;48.274;-1.900;2022-12-20T16:30:17;5.95;;;4.30;;
25365;SDS011;13315;48.274;-1.900;2022-12-20T16:32:43;5.05;;;4.55;;